CYAS

Kangirsuk Supplementary Aviation Weather Reporting

Kangirsuk, Alberta, Canada
METAR CYAS 182100Z 03015KT 15SM -SHRA BKN078 05/01 A2945 RMK AC7 LAST STFD OBS/NEXT 191200UTC SLP981
Observed Flight Rules
Jun-18 @ 21:00 UTC (2 hours ago) Visual Flight Rules
Wind Visibility Clouds Conditions
30° at 15 knots 15 miles
  • Broken at 7,800' AGL
  • Light Rain
Temperatures Readings
Current 5°C / 41°F
Dewpoint 1°C / 34°F
Humidity 76%
Altimeter 29.45" Hg
Pressure 998.1 hPa
Elevation 117
METAR CYAS 182100Z 03015KT 15SM -SHRA BKN078 05/01 A2945 RMK AC7 LAST STFD OBS/NEXT 191200UTC SLP981
Observed Flight Rules
Jun-18 @ 21:00 UTC
(2 hours ago)
VFR
Wind Visibility
30° at 15 knots 15 miles
Clouds
  • Broken at 7,800' AGL
Conditions
  • Light Rain
Temperature Dewpoint
5°C / 41°F 1°C / 34°F
Humidity Altimeter Pressure
76% 29.45" Hg 998.1 hPa